This is the latest recevied weather packets stored in our database for station/object CQ0XSM-11. If no packets are shown the sender has not sent any weather packets the latest 10 day(s).
| Time | Temp. | Humidity | Pressure | Rain* | Wind** | Luminosity | Snow |
|---|---|---|---|---|---|---|---|
| 1777647396 | 20° C | 39% | 997.9 hPa | 0 mm | - | - | - |
| 1777647083 | 20° C | 38% | 997.9 hPa | 0 mm | - | - | - |
| 1777646790 | 19.44° C | 41% | 997.8 hPa | 0 mm | - | - | - |
| 1777646473 | 18.89° C | 42% | 997.9 hPa | 0 mm | - | - | - |
| 1777646181 | 18.89° C | 42% | 998.1 hPa | 0 mm | - | - | - |
| 1777645584 | 18.89° C | 44% | 998.2 hPa | 0 mm | - | - | - |
| 1777645264 | 18.33° C | 45% | 998.3 hPa | 0 mm | - | - | - |
| 1777644968 | 19.44° C | 41% | 998.2 hPa | 0 mm | - | - | - |
| 1777644654 | 20° C | 40% | 998.3 hPa | 0 mm | - | - | - |
| 1777644373 | 19.44° C | 42% | 998.3 hPa | 0 mm | - | - | - |
| 1777643757 | 18.33° C | 44% | 998.2 hPa | 0 mm | - | - | - |
| 1777643446 | 18.33° C | 46% | 998.3 hPa | 0 mm | - | - | - |
| 1777643151 | 18.33° C | 44% | 998.4 hPa | 0 mm | - | - | - |
| 1777642839 | 18.89° C | 42% | 998.4 hPa | 0 mm | - | - | - |
| 1777642545 | 18.89° C | 43% | 998.5 hPa | 0 mm | - | - | - |
| 1777641943 | 19.44° C | 42% | 998.6 hPa | 0 mm | - | - | - |
| 1777641634 | 19.44° C | 43% | 998.5 hPa | 0 mm | - | - | - |
| 1777641332 | 18.89° C | 43% | 998.6 hPa | 0 mm | - | - | - |
| 1777641024 | 18.89° C | 42% | 998.7 hPa | 0 mm | - | - | - |
| 1777640727 | 19.44° C | 41% | 998.7 hPa | 0 mm | - | - | - |
| 1777640424 | 19.44° C | 41% | 998.6 hPa | 0 mm | - | - | - |
| 1777640125 | 19.44° C | 42% | 998.7 hPa | 0 mm | - | - | - |
| 1777639813 | 19.44° C | 42% | 998.7 hPa | 0 mm | - | - | - |
| 1777639513 | 19.44° C | 43% | 998.7 hPa | 0 mm | - | - | - |
| 1777639207 | 18.89° C | 44% | 998.7 hPa | 0 mm | - | - | - |
* Rain since midnight (hover to see other rain measurements)
** Current wind speed in m/s (hover to see current wind gust speed)